Time;durP1;ratioP1;P1;durP2;ratioP2;P2;SDS_P1;SDS_P2;PMS_P1;PMS_P2;Temp;Humidity;BMP_temperature;BMP_pressure;BME280_temperature;BME280_humidity;BME280_pressure;Samples;Min_cycle;Max_cycle;Signal;HPM_P1;HPM_P2
2023/07/23 00:02:20;;;;;;;3.30;3.00;;;18.80;93.40;;;;;;5073986;28;20221;-68
2023/07/23 00:04:46;;;;;;;3.87;3.57;;;18.80;93.40;;;;;;5049910;28;20255;-68
2023/07/23 00:07:11;;;;;;;4.47;3.90;;;18.90;93.40;;;;;;5065594;28;20726;-68
2023/07/23 00:09:37;;;;;;;4.10;3.67;;;18.90;93.30;;;;;;5067662;28;20189;-68
2023/07/23 00:12:03;;;;;;;4.00;3.17;;;18.90;93.30;;;;;;5052263;28;20272;-67
2023/07/23 00:14:28;;;;;;;4.05;3.55;;;18.90;93.20;;;;;;5060849;28;20294;-67
2023/07/23 00:16:54;;;;;;;5.30;3.10;;;18.90;93.10;;;;;;5069852;28;20261;-67
2023/07/23 00:19:20;;;;;;;4.10;3.10;;;18.90;93.40;;;;;;5063274;28;20181;-67
2023/07/23 00:21:49;;;;;;;3.33;3.03;;;18.90;93.30;;;;;;5075248;28;20177;-67
2023/07/23 00:24:19;;;;;;;3.22;3.00;;;19.00;93.20;;;;;;5069047;28;20298;-67
2023/07/23 00:26:45;;;;;;;3.72;3.40;;;18.90;93.00;;;;;;5073612;28;20184;-67
2023/07/23 00:29:11;;;;;;;4.20;3.50;;;18.80;93.20;;;;;;5067948;28;20186;-68
2023/07/23 00:31:37;;;;;;;3.80;3.33;;;18.80;93.30;;;;;;5052633;28;21012;-68
2023/07/23 00:34:03;;;;;;;3.97;3.28;;;18.80;93.40;;;;;;5074440;28;20219;-68
2023/07/23 00:36:29;;;;;;;4.53;3.27;;;18.80;93.80;;;;;;5069963;28;20273;-67
2023/07/23 00:38:55;;;;;;;3.17;2.87;;;18.70;94.10;;;;;;5071236;28;20935;-69
2023/07/23 00:41:20;;;;;;;3.28;2.97;;;18.70;93.70;;;;;;5052738;28;20500;-68
2023/07/23 00:43:46;;;;;;;3.90;3.10;;;18.70;93.90;;;;;;5069366;28;20608;-70
2023/07/23 00:46:12;;;;;;;3.50;3.20;;;18.60;94.00;;;;;;5077236;28;20276;-69
2023/07/23 00:48:38;;;;;;;3.97;3.22;;;18.60;94.10;;;;;;5072222;28;20260;-69
2023/07/23 00:51:04;;;;;;;3.17;2.87;;;18.50;94.20;;;;;;5069033;28;20590;-69
2023/07/23 00:53:29;;;;;;;3.03;2.80;;;18.50;94.40;;;;;;5075512;28;20199;-69
2023/07/23 00:55:56;;;;;;;3.50;3.20;;;18.40;94.60;;;;;;5072491;28;20279;-70
2023/07/23 00:58:22;;;;;;;3.40;3.17;;;18.40;94.70;;;;;;5068689;28;20844;-68
2023/07/23 01:00:49;;;;;;;2.83;2.63;;;18.30;95.00;;;;;;5071740;28;20180;-70
2023/07/23 01:03:15;;;;;;;3.03;2.75;;;18.10;95.20;;;;;;5077578;28;20494;-68
2023/07/23 01:05:44;;;;;;;3.37;3.07;;;18.10;95.50;;;;;;5055289;28;21781;-68
2023/07/23 01:08:11;;;;;;;3.53;3.22;;;18.10;95.80;;;;;;5076031;28;20449;-68
2023/07/23 01:10:36;;;;;;;3.60;3.30;;;18.00;96.10;;;;;;5051378;28;20311;-68
2023/07/23 01:13:03;;;;;;;3.30;2.97;;;17.90;96.30;;;;;;5073611;28;20267;-68
2023/07/23 01:15:30;;;;;;;3.58;3.28;;;17.90;96.40;;;;;;5053593;28;20205;-67
2023/07/23 01:17:59;;;;;;;3.42;3.13;;;17.80;96.50;;;;;;5072459;28;20298;-69
2023/07/23 01:20:24;;;;;;;3.42;3.13;;;17.70;96.80;;;;;;5052810;28;20204;-68
2023/07/23 01:22:50;;;;;;;4.27;3.30;;;17.70;96.90;;;;;;5070445;28;20643;-68
2023/07/23 01:25:16;;;;;;;3.73;3.30;;;17.70;97.10;;;;;;5079316;28;20192;-68
2023/07/23 01:27:41;;;;;;;3.30;3.00;;;17.60;97.20;;;;;;5053537;28;20185;-69
2023/07/23 01:30:10;;;;;;;3.30;3.03;;;18.00;97.50;;;;;;5038707;28;20182;-68
2023/07/23 01:32:38;;;;;;;3.90;3.50;;;17.60;97.50;;;;;;5068879;28;20212;-69
2023/07/23 01:35:09;;;;;;;3.38;3.13;;;17.50;97.70;;;;;;5049644;28;20216;-68
2023/07/23 01:37:35;;;;;;;3.13;2.80;;;17.40;98.20;;;;;;5071231;28;20188;-69
2023/07/23 01:40:02;;;;;;;3.50;3.20;;;17.20;98.20;;;;;;5075729;28;20192;-70
2023/07/23 01:42:28;;;;;;;4.80;2.75;;;17.30;98.20;;;;;;5074081;28;20631;-71
2023/07/23 01:44:53;;;;;;;3.90;3.20;;;17.50;98.40;;;;;;5055662;28;20236;-69
2023/07/23 01:47:19;;;;;;;3.17;2.97;;;17.00;98.20;;;;;;5058819;28;20263;-69
2023/07/23 01:49:45;;;;;;;4.13;3.00;;;17.30;98.60;;;;;;5077546;28;21758;-70
2023/07/23 01:52:10;;;;;;;4.00;2.97;;;17.30;98.70;;;;;;5076614;28;20177;-70
2023/07/23 01:54:36;;;;;;;3.50;3.20;;;17.20;98.70;;;;;;5076524;28;20291;-69
2023/07/23 01:57:03;;;;;;;3.10;2.80;;;17.30;98.90;;;;;;5071311;28;20185;-69
2023/07/23 01:59:28;;;;;;;3.40;3.10;;;17.20;99.00;;;;;;5072877;28;20562;-68
2023/07/23 02:01:54;;;;;;;3.00;2.70;;;17.20;99.10;;;;;;5070524;28;20192;-69
2023/07/23 02:04:19;;;;;;;3.03;2.73;;;17.00;99.10;;;;;;5052061;28;20698;-68
2023/07/23 02:06:45;;;;;;;3.03;2.80;;;17.10;99.30;;;;;;5054142;28;20184;-68
2023/07/23 02:09:11;;;;;;;3.60;3.30;;;17.00;99.30;;;;;;5074704;28;20817;-69
2023/07/23 02:11:36;;;;;;;3.70;3.40;;;17.20;99.60;;;;;;5057722;28;20184;-70
2023/07/23 02:14:02;;;;;;;3.40;3.10;;;17.00;99.30;;;;;;5073413;28;20761;-68
2023/07/23 02:16:27;;;;;;;3.10;2.80;;;17.00;99.20;;;;;;5077525;28;20551;-68
2023/07/23 02:18:53;;;;;;;3.00;2.80;;;17.10;99.30;;;;;;5076208;28;20228;-68
2023/07/23 02:21:19;;;;;;;3.73;3.33;;;17.00;99.30;;;;;;5072542;28;20187;-68
2023/07/23 02:23:45;;;;;;;3.77;3.03;;;17.00;99.40;;;;;;5076525;28;20846;-68
2023/07/23 02:26:11;;;;;;;3.05;2.85;;;17.10;99.40;;;;;;5054692;28;20725;-69
2023/07/23 02:28:40;;;;;;;3.40;2.83;;;17.00;99.40;;;;;;5075587;28;20267;-70
2023/07/23 02:31:06;;;;;;;4.70;3.22;;;17.10;99.40;;;;;;5069275;28;20191;-70
2023/07/23 02:33:31;;;;;;;3.30;3.00;;;17.00;99.30;;;;;;5053263;28;20184;-69
2023/07/23 02:35:57;;;;;;;3.10;2.90;;;17.00;99.70;;;;;;5072078;28;20181;-68
2023/07/23 02:38:23;;;;;;;4.10;3.17;;;16.80;99.70;;;;;;5072345;28;20548;-69
2023/07/23 02:40:48;;;;;;;2.80;2.60;;;17.10;99.70;;;;;;5070960;28;20177;-71
2023/07/23 02:43:14;;;;;;;3.30;3.00;;;17.10;99.80;;;;;;5068314;28;20350;-68
2023/07/23 02:45:39;;;;;;;3.73;3.10;;;17.10;99.80;;;;;;5074787;28;20222;-69
2023/07/23 02:48:08;;;;;;;3.10;2.80;;;17.00;99.70;;;;;;5050976;28;20185;-69
2023/07/23 02:50:34;;;;;;;2.78;2.58;;;17.10;99.80;;;;;;5071707;28;20181;-69
2023/07/23 02:52:59;;;;;;;3.87;3.30;;;17.00;99.80;;;;;;5069108;28;20191;-70
2023/07/23 02:55:25;;;;;;;3.30;3.00;;;17.00;99.80;;;;;;5072084;28;20716;-71
2023/07/23 02:57:51;;;;;;;3.17;2.87;;;17.00;99.90;;;;;;5049597;28;20189;-69
2023/07/23 03:00:20;;;;;;;4.15;3.08;;;17.00;99.90;;;;;;5057244;28;20191;-69
2023/07/23 03:02:47;;;;;;;3.15;2.85;;;16.90;99.90;;;;;;5074404;28;20231;-71
2023/07/23 03:05:13;;;;;;;3.65;3.03;;;16.90;99.90;;;;;;5072837;28;20209;-69
2023/07/23 03:07:39;;;;;;;2.60;2.40;;;16.90;99.90;;;;;;5069886;28;20230;-69
2023/07/23 03:10:05;;;;;;;2.80;2.60;;;16.90;99.80;;;;;;5056753;28;20446;-70
2023/07/23 03:12:34;;;;;;;2.83;2.63;;;17.00;99.70;;;;;;5076287;28;20191;-72
2023/07/23 03:15:00;;;;;;;4.10;2.95;;;17.10;99.70;;;;;;5069990;28;20205;-70
2023/07/23 03:17:25;;;;;;;2.43;2.23;;;17.00;99.70;;;;;;5074313;28;20188;-71
2023/07/23 03:19:52;;;;;;;3.27;2.97;;;17.00;99.70;;;;;;5076707;28;20255;-71
2023/07/23 03:22:17;;;;;;;3.28;2.97;;;17.00;99.70;;;;;;5053722;28;20978;-71
2023/07/23 03:24:43;;;;;;;4.03;2.70;;;16.90;99.40;;;;;;5074713;28;20196;-69
2023/07/23 03:27:09;;;;;;;3.47;3.17;;;16.90;99.40;;;;;;5056146;28;20262;-69
2023/07/23 03:29:35;;;;;;;2.90;2.70;;;16.90;99.30;;;;;;5071349;28;20652;-69
2023/07/23 03:32:00;;;;;;;2.87;2.67;;;17.20;99.10;;;;;;5069596;28;20184;-70
2023/07/23 03:34:26;;;;;;;2.90;2.70;;;17.20;99.10;;;;;;5057630;28;20212;-70
2023/07/23 03:36:52;;;;;;;2.90;2.70;;;17.10;99.40;;;;;;5055203;28;20231;-70
2023/07/23 03:39:18;;;;;;;2.70;2.50;;;16.70;98.90;;;;;;5074274;28;20196;-70
2023/07/23 03:41:47;;;;;;;2.40;2.20;;;17.10;99.00;;;;;;5075489;28;20871;-70
2023/07/23 03:44:13;;;;;;;3.85;3.20;;;17.20;98.80;;;;;;5066261;28;20697;-69
2023/07/23 03:47:02;;;;;;;3.40;3.10;;;17.10;98.70;;;;;;5074274;28;20191;-69
2023/07/23 03:49:28;;;;;;;3.20;2.90;;;17.20;98.70;;;;;;5078118;28;20660;-69
2023/07/23 03:51:54;;;;;;;3.30;2.70;;;17.20;98.60;;;;;;5074108;28;20192;-72
2023/07/23 03:54:19;;;;;;;2.93;2.70;;;17.40;98.80;;;;;;5054432;28;20215;-72
2023/07/23 03:56:45;;;;;;;3.70;3.13;;;17.10;98.50;;;;;;5077567;28;20536;-69
2023/07/23 03:59:11;;;;;;;3.60;2.87;;;17.20;98.60;;;;;;5056431;28;20277;-70
2023/07/23 04:01:36;;;;;;;5.33;2.60;;;17.10;98.60;;;;;;5075913;28;20446;-69
2023/07/23 04:04:02;;;;;;;3.40;3.10;;;17.10;98.60;;;;;;5075861;28;20220;-69
2023/07/23 04:06:28;;;;;;;3.33;3.00;;;17.10;98.60;;;;;;5072480;28;20189;-68
2023/07/23 04:08:53;;;;;;;4.30;2.70;;;17.10;98.70;;;;;;5080193;28;20799;-69
2023/07/23 04:11:19;;;;;;;2.67;2.43;;;17.20;98.70;;;;;;5074580;28;20315;-71
2023/07/23 04:13:44;;;;;;;3.10;2.73;;;17.10;98.60;;;;;;5053315;28;20216;-69
2023/07/23 04:16:11;;;;;;;3.37;3.00;;;17.10;98.70;;;;;;5058633;28;20193;-69
2023/07/23 04:18:51;;;;;;;3.28;2.95;;;17.20;98.70;;;;;;5079543;28;20315;-69
2023/07/23 04:21:23;;;;;;;2.88;2.65;;;17.10;98.50;;;;;;5068240;28;20286;-70
2023/07/23 04:23:51;;;;;;;3.17;2.78;;;17.10;98.60;;;;;;5058971;28;20239;-70
2023/07/23 04:26:18;;;;;;;3.80;3.50;;;16.70;98.70;;;;;;5059613;28;20185;-70
2023/07/23 04:28:44;;;;;;;3.78;3.30;;;17.10;98.90;;;;;;5051551;28;20180;-69
2023/07/23 04:31:11;;;;;;;3.20;2.90;;;17.30;99.00;;;;;;5072822;28;20189;-69
2023/07/23 04:33:36;;;;;;;3.45;3.15;;;16.80;98.90;;;;;;5069320;28;20211;-71
2023/07/23 04:36:07;;;;;;;2.60;2.40;;;17.00;99.20;;;;;;5071457;28;20189;-68
2023/07/23 04:38:32;;;;;;;2.63;2.40;;;17.10;99.20;;;;;;5073099;28;20663;-67
2023/07/23 04:40:58;;;;;;;3.50;2.70;;;17.00;99.20;;;;;;5065747;28;20265;-69
2023/07/23 04:43:23;;;;;;;3.83;2.97;;;17.10;99.20;;;;;;5069666;28;20208;-69
2023/07/23 04:45:49;;;;;;;2.93;2.73;;;17.00;99.40;;;;;;5069739;28;20176;-71
2023/07/23 04:48:16;;;;;;;3.10;2.90;;;17.00;99.40;;;;;;5070084;28;20242;-69
2023/07/23 04:50:42;;;;;;;2.67;2.47;;;17.10;99.50;;;;;;5049510;28;20185;-69
2023/07/23 04:53:07;;;;;;;2.63;2.43;;;17.20;99.20;;;;;;5068710;28;20193;-70
2023/07/23 04:55:33;;;;;;;2.93;2.63;;;17.30;98.90;;;;;;5071162;28;20465;-69
2023/07/23 04:57:59;;;;;;;2.90;2.60;;;17.40;98.80;;;;;;5050548;28;20189;-69
2023/07/23 05:00:25;;;;;;;3.87;2.60;;;17.50;98.70;;;;;;5069396;28;20185;-70
2023/07/23 05:02:50;;;;;;;3.00;2.43;;;17.60;98.50;;;;;;5071177;28;20455;-69
2023/07/23 05:05:16;;;;;;;3.47;3.03;;;17.70;98.50;;;;;;5067543;28;20216;-70
2023/07/23 05:07:42;;;;;;;3.90;3.17;;;17.80;98.80;;;;;;5068892;28;20782;-69
2023/07/23 05:10:08;;;;;;;3.40;3.10;;;17.80;98.20;;;;;;5069048;28;21386;-69
2023/07/23 05:12:34;;;;;;;2.58;2.38;;;17.90;98.10;;;;;;5055676;28;20277;-69
2023/07/23 05:15:12;;;;;;;3.07;2.73;;;18.00;97.80;;;;;;5057216;28;20236;-69
2023/07/23 05:17:38;;;;;;;2.70;2.50;;;18.00;97.70;;;;;;5067947;28;20503;-69
2023/07/23 05:20:07;;;;;;;2.90;2.70;;;18.10;97.70;;;;;;5073714;28;20208;-70
2023/07/23 05:22:39;;;;;;;3.20;2.90;;;18.10;97.60;;;;;;5068609;28;20466;-69
2023/07/23 05:25:05;;;;;;;2.70;2.50;;;18.20;97.40;;;;;;5053730;28;20292;-69
2023/07/23 05:27:31;;;;;;;5.00;4.50;;;18.30;97.50;;;;;;5071337;28;20325;-70
2023/07/23 05:29:57;;;;;;;2.67;2.47;;;18.30;97.50;;;;;;5074045;28;22069;-69
2023/07/23 05:32:23;;;;;;;3.30;3.00;;;18.40;97.50;;;;;;5071203;28;20331;-70
2023/07/23 05:34:49;;;;;;;2.92;2.72;;;18.50;97.40;;;;;;5067515;28;20228;-69
2023/07/23 05:37:14;;;;;;;3.23;2.93;;;18.60;97.60;;;;;;5070094;28;20285;-70
2023/07/23 05:39:40;;;;;;;3.07;2.63;;;18.90;97.70;;;;;;5070740;28;20189;-70
2023/07/23 05:42:05;;;;;;;3.10;2.83;;;18.70;97.40;;;;;;5067199;28;20204;-69
2023/07/23 05:44:31;;;;;;;3.47;3.17;;;18.80;97.10;;;;;;5066884;28;20228;-68
2023/07/23 05:46:57;;;;;;;2.83;2.63;;;18.90;96.90;;;;;;5071784;28;20194;-69
2023/07/23 05:49:24;;;;;;;2.83;2.63;;;19.40;96.90;;;;;;5070997;28;20304;-68
2023/07/23 05:51:50;;;;;;;3.10;2.80;;;19.20;96.40;;;;;;5078378;28;20516;-69
2023/07/23 05:54:16;;;;;;;3.13;2.42;;;19.30;96.10;;;;;;5070858;28;20930;-69
2023/07/23 05:56:42;;;;;;;3.13;2.77;;;19.60;96.00;;;;;;5070694;28;20188;-68
2023/07/23 05:59:07;;;;;;;3.13;2.80;;;19.70;95.80;;;;;;5062273;28;20192;-69
2023/07/23 06:01:33;;;;;;;3.30;3.00;;;19.80;95.30;;;;;;5050842;28;20177;-69
2023/07/23 06:03:58;;;;;;;3.20;2.90;;;20.10;95.10;;;;;;5040795;28;20678;-69
2023/07/23 06:06:24;;;;;;;2.60;2.40;;;20.20;94.70;;;;;;5043384;28;20273;-70
2023/07/23 06:08:50;;;;;;;3.07;2.63;;;20.40;94.60;;;;;;5040017;28;20184;-70
2023/07/23 06:11:15;;;;;;;2.60;2.40;;;20.60;94.30;;;;;;5049454;28;20191;-70
2023/07/23 06:13:41;;;;;;;2.70;2.50;;;20.80;94.20;;;;;;5063416;28;20227;-70
2023/07/23 06:16:07;;;;;;;3.27;2.97;;;21.10;93.50;;;;;;5050688;28;20506;-70
2023/07/23 06:18:35;;;;;;;2.73;2.53;;;21.60;93.20;;;;;;5071860;28;20188;-70
2023/07/23 06:21:03;;;;;;;2.50;2.27;;;22.10;92.50;;;;;;5055386;28;20609;-69
2023/07/23 06:23:29;;;;;;;2.77;2.57;;;22.50;91.10;;;;;;5059206;28;20471;-70
2023/07/23 06:25:55;;;;;;;2.80;2.60;;;23.00;90.10;;;;;;5052998;28;20443;-70
2023/07/23 06:28:21;;;;;;;3.33;3.03;;;23.40;88.10;;;;;;5065848;28;20184;-70
2023/07/23 06:30:50;;;;;;;3.50;2.80;;;23.80;87.10;;;;;;5070584;28;20922;-69
2023/07/23 06:33:16;;;;;;;2.70;2.50;;;24.20;84.90;;;;;;5074325;28;20196;-69
2023/07/23 06:35:45;;;;;;;3.13;2.83;;;24.40;83.10;;;;;;5070016;28;20502;-70
2023/07/23 06:38:10;;;;;;;3.27;2.33;;;24.70;83.50;;;;;;5064728;28;20268;-69
2023/07/23 06:40:36;;;;;;;3.00;2.80;;;24.70;79.60;;;;;;5074394;28;20490;-69
2023/07/23 06:43:02;;;;;;;3.47;2.57;;;24.80;77.60;;;;;;5064803;28;20227;-68
2023/07/23 06:45:28;;;;;;;2.63;2.43;;;25.00;77.30;;;;;;5044884;28;20214;-68
2023/07/23 06:47:55;;;;;;;2.77;2.50;;;24.90;75.70;;;;;;5067335;28;21375;-68
2023/07/23 06:50:20;;;;;;;6.00;2.87;;;25.00;74.70;;;;;;5066521;28;20182;-68
2023/07/23 06:52:47;;;;;;;3.00;2.70;;;25.00;72.90;;;;;;5070307;28;20655;-68
2023/07/23 06:55:13;;;;;;;2.43;2.23;;;25.00;72.40;;;;;;5071343;28;20928;-68
2023/07/23 06:57:39;;;;;;;3.60;2.77;;;25.20;72.50;;;;;;5065057;28;20446;-68
2023/07/23 07:00:07;;;;;;;2.83;2.53;;;25.20;71.00;;;;;;5073849;28;20188;-68
2023/07/23 07:02:32;;;;;;;3.07;2.43;;;25.40;70.40;;;;;;5069867;28;20442;-68
2023/07/23 07:04:58;;;;;;;3.07;2.77;;;25.70;69.60;;;;;;5053624;28;20507;-68
2023/07/23 07:07:23;;;;;;;3.13;2.77;;;25.90;67.60;;;;;;5040411;28;20664;-68
2023/07/23 07:09:49;;;;;;;2.77;2.50;;;26.10;66.80;;;;;;5070734;28;20335;-68
2023/07/23 07:12:15;;;;;;;2.87;2.57;;;26.10;65.90;;;;;;5049371;28;20184;-68
2023/07/23 07:14:40;;;;;;;2.93;2.67;;;26.10;66.10;;;;;;5068599;28;20211;-68
2023/07/23 07:17:06;;;;;;;7.47;3.17;;;26.40;66.50;;;;;;5050408;28;20670;-70
2023/07/23 07:19:32;;;;;;;3.30;2.67;;;27.30;63.40;;;;;;5039455;28;20185;-69
2023/07/23 07:21:57;;;;;;;2.80;2.60;;;28.60;59.90;;;;;;5074511;28;20689;-69
2023/07/23 07:24:23;;;;;;;2.70;2.50;;;30.50;56.50;;;;;;5065097;28;20302;-68
2023/07/23 07:26:48;;;;;;;2.60;2.40;;;32.30;52.40;;;;;;5054486;28;20192;-69
2023/07/23 07:29:14;;;;;;;3.20;2.90;;;34.80;48.30;;;;;;5047980;28;20571;-68
2023/07/23 07:31:39;;;;;;;2.50;2.20;;;35.60;43.30;;;;;;5069043;28;20188;-69
2023/07/23 07:34:05;;;;;;;3.23;2.93;;;36.60;41.10;;;;;;5068093;28;20211;-69
2023/07/23 07:36:31;;;;;;;2.87;2.67;;;37.40;39.20;;;;;;5062357;28;20192;-69
2023/07/23 07:38:56;;;;;;;2.70;2.50;;;37.20;38.00;;;;;;5072101;28;20271;-69
2023/07/23 07:41:22;;;;;;;2.83;2.63;;;37.40;37.40;;;;;;5072756;28;20269;-69
2023/07/23 07:43:48;;;;;;;2.90;2.60;;;38.60;35.60;;;;;;5067372;28;20234;-69
2023/07/23 07:46:13;;;;;;;3.07;2.37;;;38.60;34.80;;;;;;5053265;28;20238;-69
2023/07/23 07:48:39;;;;;;;2.73;2.50;;;38.40;34.90;;;;;;5074560;28;20184;-69
2023/07/23 07:51:08;;;;;;;3.10;2.80;;;38.60;34.20;;;;;;5046520;28;20180;-70
2023/07/23 07:53:35;;;;;;;2.47;2.33;;;39.10;34.30;;;;;;5064353;28;20254;-70
2023/07/23 07:56:01;;;;;;;2.47;2.30;;;38.30;33.80;;;;;;5071151;28;20455;-67
2023/07/23 07:58:28;;;;;;;2.73;2.53;;;36.50;34.90;;;;;;5066173;28;20497;-67
2023/07/23 08:00:54;;;;;;;2.83;2.63;;;36.00;36.40;;;;;;5055806;28;20504;-69
2023/07/23 08:03:23;;;;;;;2.73;2.53;;;34.90;37.50;;;;;;5074707;28;20485;-69
2023/07/23 08:05:49;;;;;;;6.03;2.97;;;34.70;38.80;;;;;;5057019;28;20442;-69
2023/07/23 08:08:17;;;;;;;2.80;2.50;;;35.00;38.40;;;;;;5053613;28;20442;-69
2023/07/23 08:10:45;;;;;;;2.67;2.47;;;35.50;38.50;;;;;;5071784;28;20193;-69
2023/07/23 08:13:13;;;;;;;2.43;2.33;;;35.80;37.60;;;;;;5073068;28;20481;-68
2023/07/23 08:15:39;;;;;;;3.23;2.60;;;36.80;37.00;;;;;;5073606;28;20467;-68
2023/07/23 08:18:05;;;;;;;3.10;2.80;;;36.30;36.00;;;;;;5053446;28;20454;-69
2023/07/23 08:20:33;;;;;;;3.33;2.90;;;36.70;36.30;;;;;;5049684;28;20966;-69
2023/07/23 08:22:59;;;;;;;2.80;2.50;;;36.40;36.20;;;;;;5071615;28;20899;-69
2023/07/23 08:25:25;;;;;;;2.90;2.50;;;35.90;37.00;;;;;;5071575;28;20549;-69
2023/07/23 08:27:52;;;;;;;3.20;2.50;;;35.30;37.70;;;;;;5043891;28;20190;-69
2023/07/23 08:30:20;;;;;;;2.70;2.50;;;34.20;39.00;;;;;;5071751;28;20185;-67
2023/07/23 08:32:50;;;;;;;3.07;2.77;;;33.10;40.50;;;;;;5063534;28;20867;-70
2023/07/23 08:35:15;;;;;;;2.90;2.70;;;33.10;41.40;;;;;;5063886;28;20472;-68
2023/07/23 08:37:41;;;;;;;2.50;2.30;;;33.20;41.80;;;;;;5064754;28;20995;-68
2023/07/23 08:40:08;;;;;;;2.30;2.10;;;32.40;42.10;;;;;;5048549;28;20504;-68
2023/07/23 08:43:05;;;;;;;2.13;1.97;;;31.90;42.70;;;;;;5066934;28;20467;-68
2023/07/23 08:45:52;;;;;;;3.43;2.30;;;31.30;43.80;;;;;;5064716;28;20824;-69
2023/07/23 08:48:19;;;;;;;2.27;2.07;;;31.50;43.80;;;;;;5069294;28;20449;-69
2023/07/23 08:50:47;;;;;;;2.30;2.10;;;32.30;42.80;;;;;;5051290;28;20448;-70
2023/07/23 08:53:14;;;;;;;2.03;1.93;;;32.50;42.70;;;;;;5077366;28;20478;-69
2023/07/23 08:55:45;;;;;;;3.80;2.63;;;32.20;43.10;;;;;;5071069;28;20458;-67
2023/07/23 08:58:16;;;;;;;3.20;2.30;;;31.80;43.90;;;;;;5049955;28;20450;-67
2023/07/23 09:00:43;;;;;;;2.60;2.37;;;31.30;44.60;;;;;;5049238;28;20535;-68
2023/07/23 09:03:11;;;;;;;3.70;2.37;;;31.20;45.10;;;;;;5075378;28;20488;-67
2023/07/23 09:05:38;;;;;;;2.90;2.23;;;31.10;44.80;;;;;;5056616;28;20473;-68
2023/07/23 09:08:04;;;;;;;2.00;1.90;;;31.20;44.70;;;;;;5046552;28;20525;-68
2023/07/23 09:10:29;;;;;;;2.40;2.20;;;31.10;44.90;;;;;;5072314;28;20467;-69
2023/07/23 09:12:55;;;;;;;4.53;2.50;;;30.80;45.40;;;;;;5071434;28;20195;-68
2023/07/23 09:15:21;;;;;;;3.40;2.30;;;30.90;45.50;;;;;;5051572;28;20694;-68
2023/07/23 09:17:50;;;;;;;1.77;1.67;;;30.90;46.30;;;;;;5074532;28;20193;-69
2023/07/23 09:20:19;;;;;;;3.70;1.90;;;30.50;46.30;;;;;;5067525;28;20196;-69
2023/07/23 09:22:45;;;;;;;2.03;1.83;;;30.40;46.30;;;;;;5068717;28;20459;-69
2023/07/23 09:25:11;;;;;;;2.30;2.10;;;30.20;47.20;;;;;;5055544;28;20469;-68
2023/07/23 09:27:38;;;;;;;2.37;2.17;;;30.10;47.00;;;;;;5050895;28;20823;-68
2023/07/23 09:30:04;;;;;;;2.37;2.17;;;30.30;46.10;;;;;;5067561;28;20194;-69
2023/07/23 09:32:30;;;;;;;2.20;2.10;;;30.50;45.70;;;;;;5073933;28;20451;-69
2023/07/23 09:35:00;;;;;;;1.93;1.80;;;31.00;45.20;;;;;;5050791;28;20469;-68
2023/07/23 09:37:29;;;;;;;2.30;2.10;;;31.30;44.80;;;;;;5066688;28;20447;-68
2023/07/23 09:39:56;;;;;;;2.70;1.90;;;31.10;43.00;;;;;;5068601;28;20906;-68
2023/07/23 09:42:22;;;;;;;2.33;2.10;;;31.10;42.70;;;;;;5065974;28;20826;-68
2023/07/23 09:44:49;;;;;;;2.03;1.80;;;30.80;43.20;;;;;;5068272;28;20467;-70
2023/07/23 09:47:15;;;;;;;1.80;1.70;;;30.50;43.60;;;;;;5066227;28;20442;-69
2023/07/23 09:49:43;;;;;;;1.60;1.50;;;30.20;44.10;;;;;;5062097;28;20845;-70
2023/07/23 09:52:09;;;;;;;1.90;1.80;;;30.00;44.60;;;;;;5064465;28;21028;-68
2023/07/23 09:54:35;;;;;;;2.60;1.90;;;29.80;45.00;;;;;;5068772;28;20560;-70
2023/07/23 09:57:02;;;;;;;2.57;2.37;;;29.60;45.20;;;;;;5067161;28;20267;-68
2023/07/23 09:59:29;;;;;;;2.10;2.00;;;30.00;45.10;;;;;;5066807;28;20443;-68
2023/07/23 10:01:56;;;;;;;4.30;2.23;;;30.50;44.50;;;;;;5070892;28;20916;-68
2023/07/23 10:04:23;;;;;;;2.00;1.90;;;31.50;43.60;;;;;;5062267;28;20465;-69
2023/07/23 10:06:48;;;;;;;2.30;1.80;;;33.30;41.50;;;;;;5048185;28;20447;-69
2023/07/23 10:09:16;;;;;;;2.90;2.23;;;33.70;40.00;;;;;;5054212;28;20807;-69
2023/07/23 10:11:41;;;;;;;2.43;2.23;;;33.60;39.00;;;;;;5071196;28;20271;-68
2023/07/23 10:14:07;;;;;;;3.00;2.40;;;34.00;39.00;;;;;;5051895;28;20879;-69
2023/07/23 10:16:38;;;;;;;2.27;2.07;;;34.60;38.20;;;;;;5067821;28;20185;-69
2023/07/23 10:19:04;;;;;;;3.03;2.20;;;34.20;38.30;;;;;;5068177;28;20239;-70
2023/07/23 10:21:34;;;;;;;5.73;2.17;;;34.00;38.00;;;;;;5068111;28;20458;-69
2023/07/23 10:24:01;;;;;;;2.13;1.90;;;33.40;38.90;;;;;;5065833;28;20550;-68
2023/07/23 10:26:38;;;;;;;2.50;2.30;;;32.70;39.50;;;;;;5048185;28;20441;-70
2023/07/23 10:29:07;;;;;;;2.43;2.23;;;32.30;40.40;;;;;;5047240;28;20439;-69
2023/07/23 10:31:33;;;;;;;2.07;1.87;;;31.70;41.40;;;;;;5064049;28;20722;-68
2023/07/23 10:33:59;;;;;;;2.40;2.20;;;31.20;42.20;;;;;;5049046;28;20567;-68
2023/07/23 10:36:25;;;;;;;1.93;1.77;;;30.80;42.90;;;;;;5067553;28;20444;-68
2023/07/23 10:39:13;;;;;;;2.03;1.93;;;30.60;43.30;;;;;;5066647;28;20451;-69
2023/07/23 10:41:53;;;;;;;2.07;1.97;;;30.60;43.80;;;;;;5051010;28;20442;-70
2023/07/23 10:44:27;;;;;;;3.13;1.77;;;30.80;44.30;;;;;;5066362;28;20901;-69
2023/07/23 10:46:55;;;;;;;2.33;2.20;;;30.70;44.00;;;;;;5063506;28;20442;-69
2023/07/23 10:49:23;;;;;;;2.43;2.23;;;30.40;44.60;;;;;;5042778;28;20923;-68
2023/07/23 10:51:50;;;;;;;2.73;2.00;;;30.30;44.50;;;;;;5050693;28;20445;-69
2023/07/23 10:54:17;;;;;;;2.40;2.20;;;30.40;45.40;;;;;;5052102;28;20542;-69
2023/07/23 10:56:43;;;;;;;2.70;2.50;;;30.50;44.70;;;;;;5066662;28;20477;-68
2023/07/23 10:59:14;;;;;;;2.50;2.30;;;30.50;44.30;;;;;;5067313;28;20570;-69
2023/07/23 11:01:44;;;;;;;2.53;2.33;;;30.80;43.50;;;;;;5047945;28;20182;-69
2023/07/23 11:04:23;;;;;;;2.57;2.30;;;30.20;44.00;;;;;;5050986;28;20474;-69
2023/07/23 11:06:55;;;;;;;2.60;2.40;;;30.10;44.90;;;;;;5060992;28;20438;-69
2023/07/23 11:09:33;;;;;;;2.33;2.20;;;29.80;45.30;;;;;;5045585;28;20923;-69
2023/07/23 11:11:59;;;;;;;3.00;2.17;;;30.20;45.50;;;;;;5066568;28;20756;-68
2023/07/23 11:14:29;;;;;;;2.70;2.50;;;30.90;44.40;;;;;;5067862;28;20565;-68
2023/07/23 11:17:00;;;;;;;2.10;2.00;;;32.30;42.80;;;;;;5068925;28;20505;-69
2023/07/23 11:19:27;;;;;;;3.73;2.40;;;33.20;41.10;;;;;;5066151;28;20479;-69
2023/07/23 11:22:01;;;;;;;2.67;2.47;;;34.20;40.10;;;;;;5062731;28;20455;-69
2023/07/23 11:24:28;;;;;;;2.80;2.60;;;34.20;39.40;;;;;;5067889;28;20474;-69
2023/07/23 11:26:59;;;;;;;2.40;2.20;;;32.90;40.70;;;;;;5066909;28;20858;-69
2023/07/23 11:29:25;;;;;;;2.13;2.03;;;32.90;40.00;;;;;;5062417;28;21039;-68
2023/07/23 11:31:52;;;;;;;2.83;2.50;;;33.20;39.80;;;;;;5062004;28;20440;-68
2023/07/23 11:34:18;;;;;;;3.23;2.93;;;33.60;39.10;;;;;;5044458;28;20458;-68
2023/07/23 11:36:43;;;;;;;3.37;3.07;;;33.80;39.10;;;;;;5063879;28;20446;-69
2023/07/23 11:39:09;;;;;;;2.70;2.50;;;34.40;37.80;;;;;;5063230;28;20188;-69
2023/07/23 11:41:44;;;;;;;2.70;2.40;;;35.10;37.60;;;;;;5048275;28;20189;-69
2023/07/23 11:44:10;;;;;;;2.63;2.43;;;35.20;36.80;;;;;;5063881;28;20642;-69
2023/07/23 11:46:38;;;;;;;2.97;2.67;;;35.10;36.50;;;;;;5069997;28;20447;-69
2023/07/23 11:49:11;;;;;;;2.70;2.50;;;35.00;35.40;;;;;;5065567;28;20448;-69
2023/07/23 11:51:38;;;;;;;3.13;2.83;;;34.30;35.10;;;;;;5060726;28;20435;-68
2023/07/23 11:54:11;;;;;;;2.40;2.20;;;33.60;36.90;;;;;;5071880;28;20514;-68
2023/07/23 11:56:42;;;;;;;3.50;2.80;;;33.00;37.70;;;;;;5068818;28;20447;-68
2023/07/23 11:59:09;;;;;;;2.60;2.40;;;32.20;38.90;;;;;;5063431;28;20458;-68
2023/07/23 12:01:37;;;;;;;4.10;3.23;;;31.70;40.00;;;;;;5045589;28;20439;-69
2023/07/23 12:04:04;;;;;;;3.00;2.80;;;31.70;40.50;;;;;;5063577;28;20556;-68
2023/07/23 12:06:34;;;;;;;2.53;2.30;;;31.50;40.00;;;;;;5060082;28;20893;-68
2023/07/23 12:09:04;;;;;;;2.80;2.60;;;31.20;40.30;;;;;;5068060;28;20440;-69
2023/07/23 12:11:32;;;;;;;2.60;2.40;;;30.80;40.80;;;;;;5048652;28;20440;-70
2023/07/23 12:14:02;;;;;;;3.90;2.90;;;30.70;41.70;;;;;;5063288;28;20867;-69
2023/07/23 12:16:37;;;;;;;5.43;3.33;;;30.80;41.60;;;;;;5071463;28;20974;-69
2023/07/23 12:19:12;;;;;;;2.97;2.40;;;30.70;41.40;;;;;;5068393;28;20468;-68
2023/07/23 12:21:40;;;;;;;2.97;2.77;;;30.30;40.40;;;;;;5074607;28;20462;-69
2023/07/23 12:24:14;;;;;;;2.80;2.60;;;30.20;41.60;;;;;;5070060;28;20466;-69
2023/07/23 12:26:40;;;;;;;3.17;2.90;;;30.00;42.10;;;;;;5069440;28;20442;-68
2023/07/23 12:29:06;;;;;;;2.83;2.60;;;29.80;42.00;;;;;;5066937;28;20450;-67
2023/07/23 12:31:35;;;;;;;4.17;2.60;;;29.60;42.80;;;;;;5050999;28;20283;-68
2023/07/23 12:34:00;;;;;;;2.53;2.33;;;29.50;43.00;;;;;;5069738;28;21013;-67
2023/07/23 12:36:26;;;;;;;3.33;2.90;;;29.40;43.50;;;;;;5057641;28;20447;-67
2023/07/23 12:38:51;;;;;;;2.73;2.53;;;29.30;43.90;;;;;;5068079;28;20661;-67
2023/07/23 12:41:17;;;;;;;3.40;2.93;;;29.20;44.30;;;;;;5079030;28;20807;-67
2023/07/23 12:43:43;;;;;;;2.57;2.37;;;29.00;44.60;;;;;;5074275;28;20215;-68
2023/07/23 12:46:08;;;;;;;2.77;2.57;;;28.80;44.80;;;;;;5070943;28;20184;-68
2023/07/23 12:48:34;;;;;;;2.80;2.60;;;28.70;45.40;;;;;;5068291;28;20184;-69